sensor_id;sensor_type;location;lat;lon;timestamp;pressure;altitude;pressure_sealevel;temperature;humidity
9462;BME280;4769;42.660;23.262;2023-03-22T00:01:07;93657.66;;;10.49;100.00
9462;BME280;4769;42.660;23.262;2023-03-22T00:03:33;93662.75;;;10.56;100.00
9462;BME280;4769;42.660;23.262;2023-03-22T00:05:59;93658.63;;;10.70;100.00
9462;BME280;4769;42.660;23.262;2023-03-22T00:08:25;93657.66;;;10.81;100.00
9462;BME280;4769;42.660;23.262;2023-03-22T00:10:53;93651.84;;;10.79;100.00
9462;BME280;4769;42.660;23.262;2023-03-22T00:13:19;93656.72;;;10.92;100.00
9462;BME280;4769;42.660;23.262;2023-03-22T00:15:44;93655.41;;;10.94;100.00
9462;BME280;4769;42.660;23.262;2023-03-22T00:18:10;93660.69;;;10.94;100.00
9462;BME280;4769;42.660;23.262;2023-03-22T00:20:36;93652.28;;;11.02;100.00
9462;BME280;4769;42.660;23.262;2023-03-22T00:23:02;93654.63;;;10.99;100.00
9462;BME280;4769;42.660;23.262;2023-03-22T00:25:27;93647.78;;;10.98;100.00
9462;BME280;4769;42.660;23.262;2023-03-22T00:27:56;93640.38;;;11.00;100.00
9462;BME280;4769;42.660;23.262;2023-03-22T00:30:21;93650.47;;;11.08;100.00
9462;BME280;4769;42.660;23.262;2023-03-22T00:32:47;93648.66;;;11.08;100.00
9462;BME280;4769;42.660;23.262;2023-03-22T00:35:12;93650.47;;;11.08;100.00
9462;BME280;4769;42.660;23.262;2023-03-22T00:37:38;93653.84;;;11.03;100.00
9462;BME280;4769;42.660;23.262;2023-03-22T00:40:05;93643.84;;;11.00;100.00
9462;BME280;4769;42.660;23.262;2023-03-22T00:42:31;93648.56;;;10.98;100.00
9462;BME280;4769;42.660;23.262;2023-03-22T00:44:59;93647.75;;;10.93;100.00
9462;BME280;4769;42.660;23.262;2023-03-22T00:47:25;93642.09;;;10.79;100.00
9462;BME280;4769;42.660;23.262;2023-03-22T00:49:51;93641.75;;;10.71;100.00
9462;BME280;4769;42.660;23.262;2023-03-22T00:52:16;93641.94;;;10.59;100.00
9462;BME280;4769;42.660;23.262;2023-03-22T00:54:42;93649.59;;;10.61;100.00
9462;BME280;4769;42.660;23.262;2023-03-22T00:57:08;93651.78;;;10.69;100.00
9462;BME280;4769;42.660;23.262;2023-03-22T00:59:33;93634.00;;;10.54;100.00
9462;BME280;4769;42.660;23.262;2023-03-22T01:02:02;93637.88;;;10.47;100.00
9462;BME280;4769;42.660;23.262;2023-03-22T01:04:28;93641.38;;;10.52;100.00
9462;BME280;4769;42.660;23.262;2023-03-22T01:06:53;93637.19;;;10.61;100.00
9462;BME280;4769;42.660;23.262;2023-03-22T01:09:19;93636.13;;;10.57;100.00
9462;BME280;4769;42.660;23.262;2023-03-22T01:11:45;93632.09;;;10.50;100.00
9462;BME280;4769;42.660;23.262;2023-03-22T01:14:10;93627.25;;;10.37;100.00
9462;BME280;4769;42.660;23.262;2023-03-22T01:16:36;93636.84;;;10.48;100.00
9462;BME280;4769;42.660;23.262;2023-03-22T01:19:04;93628.59;;;10.39;100.00
9462;BME280;4769;42.660;23.262;2023-03-22T01:21:30;93627.34;;;10.47;100.00
9462;BME280;4769;42.660;23.262;2023-03-22T01:23:56;93621.50;;;10.45;100.00
9462;BME280;4769;42.660;23.262;2023-03-22T01:26:21;93622.47;;;10.34;100.00
9462;BME280;4769;42.660;23.262;2023-03-22T01:28:47;93628.28;;;10.36;100.00
9462;BME280;4769;42.660;23.262;2023-03-22T01:31:13;93622.97;;;10.31;100.00
9462;BME280;4769;42.660;23.262;2023-03-22T01:33:38;93620.66;;;10.34;100.00
9462;BME280;4769;42.660;23.262;2023-03-22T01:36:08;93628.06;;;10.42;100.00
9462;BME280;4769;42.660;23.262;2023-03-22T01:38:33;93615.06;;;10.31;100.00
9462;BME280;4769;42.660;23.262;2023-03-22T01:40:59;93622.34;;;10.19;100.00
9462;BME280;4769;42.660;23.262;2023-03-22T01:43:25;93612.84;;;10.18;100.00
9462;BME280;4769;42.660;23.262;2023-03-22T01:45:51;93610.38;;;10.06;100.00
9462;BME280;4769;42.660;23.262;2023-03-22T01:48:22;93612.75;;;10.08;100.00
9462;BME280;4769;42.660;23.262;2023-03-22T01:50:55;93612.19;;;10.06;100.00
9462;BME280;4769;42.660;23.262;2023-03-22T01:53:26;93617.50;;;10.11;100.00
9462;BME280;4769;42.660;23.262;2023-03-22T01:55:52;93594.38;;;10.13;100.00
9462;BME280;4769;42.660;23.262;2023-03-22T01:58:19;93610.22;;;10.18;100.00
9462;BME280;4769;42.660;23.262;2023-03-22T02:00:46;93610.53;;;10.00;100.00
9462;BME280;4769;42.660;23.262;2023-03-22T02:03:14;93615.94;;;10.10;100.00
9462;BME280;4769;42.660;23.262;2023-03-22T02:05:43;93615.19;;;10.14;100.00
9462;BME280;4769;42.660;23.262;2023-03-22T02:08:08;93613.59;;;10.13;100.00
9462;BME280;4769;42.660;23.262;2023-03-22T02:10:37;93611.09;;;10.28;100.00
9462;BME280;4769;42.660;23.262;2023-03-22T02:13:21;93611.09;;;10.28;100.00
9462;BME280;4769;42.660;23.262;2023-03-22T02:15:56;93614.53;;;10.29;100.00
9462;BME280;4769;42.660;23.262;2023-03-22T02:18:37;93615.38;;;10.34;100.00
9462;BME280;4769;42.660;23.262;2023-03-22T02:21:25;93613.53;;;10.35;100.00
9462;BME280;4769;42.660;23.262;2023-03-22T02:27:17;93617.16;;;10.29;100.00
9462;BME280;4769;42.660;23.262;2023-03-22T02:29:50;93621.13;;;10.31;100.00
9462;BME280;4769;42.660;23.262;2023-03-22T02:32:39;93625.50;;;10.21;100.00
9462;BME280;4769;42.660;23.262;2023-03-22T02:41:09;93631.63;;;10.00;100.00
9462;BME280;4769;42.660;23.262;2023-03-22T02:43:40;93630.31;;;10.02;100.00
9462;BME280;4769;42.660;23.262;2023-03-22T02:46:09;93636.19;;;10.09;100.00
9462;BME280;4769;42.660;23.262;2023-03-22T02:48:40;93637.59;;;10.17;100.00
9462;BME280;4769;42.660;23.262;2023-03-22T02:51:11;93637.28;;;10.13;100.00
9462;BME280;4769;42.660;23.262;2023-03-22T02:53:43;93635.81;;;10.22;100.00
9462;BME280;4769;42.660;23.262;2023-03-22T02:56:17;93645.06;;;10.25;100.00
9462;BME280;4769;42.660;23.262;2023-03-22T02:58:47;93637.09;;;10.20;100.00
9462;BME280;4769;42.660;23.262;2023-03-22T03:01:18;93647.94;;;10.23;100.00
9462;BME280;4769;42.660;23.262;2023-03-22T03:03:46;93624.97;;;10.19;100.00
9462;BME280;4769;42.660;23.262;2023-03-22T03:06:17;93630.53;;;10.22;100.00
9462;BME280;4769;42.660;23.262;2023-03-22T03:08:45;93626.84;;;10.23;100.00
9462;BME280;4769;42.660;23.262;2023-03-22T03:11:15;93618.66;;;10.20;100.00
9462;BME280;4769;42.660;23.262;2023-03-22T03:13:40;93632.31;;;10.17;100.00
9462;BME280;4769;42.660;23.262;2023-03-22T03:16:10;93638.59;;;10.11;100.00
9462;BME280;4769;42.660;23.262;2023-03-22T03:18:42;93635.75;;;10.17;100.00
9462;BME280;4769;42.660;23.262;2023-03-22T03:21:19;93640.22;;;10.17;100.00
9462;BME280;4769;42.660;23.262;2023-03-22T03:23:53;93645.28;;;10.23;100.00
9462;BME280;4769;42.660;23.262;2023-03-22T03:26:28;93637.06;;;10.15;100.00
9462;BME280;4769;42.660;23.262;2023-03-22T03:29:02;93633.94;;;10.18;100.00
9462;BME280;4769;42.660;23.262;2023-03-22T03:31:33;93643.22;;;10.25;100.00
9462;BME280;4769;42.660;23.262;2023-03-22T03:34:07;93644.50;;;10.23;100.00
9462;BME280;4769;42.660;23.262;2023-03-22T03:36:39;93643.47;;;10.24;100.00
9462;BME280;4769;42.660;23.262;2023-03-22T03:39:09;93645.06;;;10.25;100.00
9462;BME280;4769;42.660;23.262;2023-03-22T03:41:41;93648.53;;;10.30;100.00
9462;BME280;4769;42.660;23.262;2023-03-22T03:44:09;93649.75;;;10.18;100.00
9462;BME280;4769;42.660;23.262;2023-03-22T03:46:35;93649.19;;;10.16;100.00
9462;BME280;4769;42.660;23.262;2023-03-22T03:49:01;93654.16;;;10.12;100.00
9462;BME280;4769;42.660;23.262;2023-03-22T03:51:28;93656.06;;;10.22;100.00
9462;BME280;4769;42.660;23.262;2023-03-22T03:53:54;93651.91;;;10.26;100.00
9462;BME280;4769;42.660;23.262;2023-03-22T03:56:20;93660.91;;;10.30;100.00
9462;BME280;4769;42.660;23.262;2023-03-22T03:58:48;93656.50;;;10.35;100.00
9462;BME280;4769;42.660;23.262;2023-03-22T04:01:14;93665.34;;;10.24;100.00
9462;BME280;4769;42.660;23.262;2023-03-22T04:03:39;93657.31;;;10.14;100.00
9462;BME280;4769;42.660;23.262;2023-03-22T04:06:06;93662.50;;;10.04;100.00
9462;BME280;4769;42.660;23.262;2023-03-22T04:08:31;93659.13;;;10.09;100.00
9462;BME280;4769;42.660;23.262;2023-03-22T04:10:57;93663.69;;;9.97;100.00
9462;BME280;4769;42.660;23.262;2023-03-22T04:13:23;93664.38;;;9.66;100.00
9462;BME280;4769;42.660;23.262;2023-03-22T04:15:54;93668.81;;;9.39;100.00
9462;BME280;4769;42.660;23.262;2023-03-22T04:18:20;93674.59;;;9.41;100.00
9462;BME280;4769;42.660;23.262;2023-03-22T04:20:46;93669.34;;;9.41;100.00
9462;BME280;4769;42.660;23.262;2023-03-22T04:23:11;93668.63;;;9.45;100.00
9462;BME280;4769;42.660;23.262;2023-03-22T04:25:37;93662.06;;;9.10;100.00
9462;BME280;4769;42.660;23.262;2023-03-22T04:28:03;93668.47;;;8.97;100.00
9462;BME280;4769;42.660;23.262;2023-03-22T04:30:29;93677.84;;;9.10;100.00
9462;BME280;4769;42.660;23.262;2023-03-22T04:32:58;93670.53;;;9.12;100.00
9462;BME280;4769;42.660;23.262;2023-03-22T04:35:23;93678.78;;;9.20;100.00
9462;BME280;4769;42.660;23.262;2023-03-22T04:37:49;93666.78;;;9.08;100.00
9462;BME280;4769;42.660;23.262;2023-03-22T04:40:15;93677.63;;;8.95;100.00
9462;BME280;4769;42.660;23.262;2023-03-22T04:42:41;93672.38;;;8.95;100.00
9462;BME280;4769;42.660;23.262;2023-03-22T04:45:08;93669.13;;;8.88;100.00
9462;BME280;4769;42.660;23.262;2023-03-22T04:47:34;93670.84;;;8.99;100.00
9462;BME280;4769;42.660;23.262;2023-03-22T04:50:02;93678.44;;;8.95;100.00
9462;BME280;4769;42.660;23.262;2023-03-22T04:52:28;93690.63;;;9.01;100.00
9462;BME280;4769;42.660;23.262;2023-03-22T04:54:54;93691.75;;;8.89;100.00
9462;BME280;4769;42.660;23.262;2023-03-22T04:57:20;93696.16;;;9.21;100.00
9462;BME280;4769;42.660;23.262;2023-03-22T04:59:45;93691.50;;;9.07;100.00
9462;BME280;4769;42.660;23.262;2023-03-22T05:02:11;93686.00;;;9.08;100.00
9462;BME280;4769;42.660;23.262;2023-03-22T05:04:37;93693.47;;;9.16;100.00
9462;BME280;4769;42.660;23.262;2023-03-22T05:07:05;93689.00;;;9.17;100.00
9462;BME280;4769;42.660;23.262;2023-03-22T05:09:31;93696.50;;;9.25;100.00
9462;BME280;4769;42.660;23.262;2023-03-22T05:11:57;93699.88;;;9.42;100.00
9462;BME280;4769;42.660;23.262;2023-03-22T05:14:22;93704.78;;;9.55;100.00
9462;BME280;4769;42.660;23.262;2023-03-22T05:16:48;93698.81;;;9.81;100.00
9462;BME280;4769;42.660;23.262;2023-03-22T05:19:14;93706.72;;;9.81;100.00
9462;BME280;4769;42.660;23.262;2023-03-22T05:21:40;93707.66;;;9.75;100.00
9462;BME280;4769;42.660;23.262;2023-03-22T05:24:10;93697.47;;;9.78;100.00
9462;BME280;4769;42.660;23.262;2023-03-22T05:26:36;93708.59;;;10.07;100.00
9462;BME280;4769;42.660;23.262;2023-03-22T05:29:02;93704.50;;;10.16;100.00
9462;BME280;4769;42.660;23.262;2023-03-22T05:31:28;93713.50;;;9.98;100.00
9462;BME280;4769;42.660;23.262;2023-03-22T05:33:53;93710.00;;;9.93;100.00
9462;BME280;4769;42.660;23.262;2023-03-22T05:36:20;93711.91;;;9.76;100.00
9462;BME280;4769;42.660;23.262;2023-03-22T05:38:46;93717.66;;;9.94;100.00
9462;BME280;4769;42.660;23.262;2023-03-22T05:41:15;93723.72;;;9.95;100.00
9462;BME280;4769;42.660;23.262;2023-03-22T05:43:41;93713.97;;;9.95;100.00
9462;BME280;4769;42.660;23.262;2023-03-22T05:46:08;93715.50;;;9.91;100.00
9462;BME280;4769;42.660;23.262;2023-03-22T05:48:34;93720.78;;;9.91;100.00
9462;BME280;4769;42.660;23.262;2023-03-22T05:51:00;93720.09;;;9.79;100.00
9462;BME280;4769;42.660;23.262;2023-03-22T05:53:26;93729.97;;;9.89;100.00
9462;BME280;4769;42.660;23.262;2023-03-22T05:55:51;93734.31;;;10.00;100.00
9462;BME280;4769;42.660;23.262;2023-03-22T05:58:20;93731.44;;;10.01;100.00
9462;BME280;4769;42.660;23.262;2023-03-22T06:00:45;93737.25;;;10.03;100.00
9462;BME280;4769;42.660;23.262;2023-03-22T06:03:11;93741.91;;;9.96;100.00
9462;BME280;4769;42.660;23.262;2023-03-22T06:05:37;93729.19;;;9.88;100.00
9462;BME280;4769;42.660;23.262;2023-03-22T06:08:03;93740.63;;;9.99;100.00
9462;BME280;4769;42.660;23.262;2023-03-22T06:10:29;93745.09;;;9.98;100.00
9462;BME280;4769;42.660;23.262;2023-03-22T06:12:54;93746.63;;;9.94;100.00
9462;BME280;4769;42.660;23.262;2023-03-22T06:15:23;93744.22;;;9.93;100.00
9462;BME280;4769;42.660;23.262;2023-03-22T06:17:48;93743.50;;;9.97;100.00
9462;BME280;4769;42.660;23.262;2023-03-22T06:20:14;93742.31;;;10.05;100.00
9462;BME280;4769;42.660;23.262;2023-03-22T06:22:41;93740.22;;;10.07;100.00
9462;BME280;4769;42.660;23.262;2023-03-22T06:25:09;93742.97;;;10.17;100.00
9462;BME280;4769;42.660;23.262;2023-03-22T06:27:35;93748.28;;;10.22;100.00
9462;BME280;4769;42.660;23.262;2023-03-22T06:30:00;93738.47;;;10.39;100.00
9462;BME280;4769;42.660;23.262;2023-03-22T06:32:29;93753.22;;;10.40;100.00
9462;BME280;4769;42.660;23.262;2023-03-22T06:34:55;93745.19;;;10.51;100.00
9462;BME280;4769;42.660;23.262;2023-03-22T06:37:22;93753.81;;;10.68;100.00
9462;BME280;4769;42.660;23.262;2023-03-22T06:39:48;93754.75;;;10.84;100.00
9462;BME280;4769;42.660;23.262;2023-03-22T06:42:13;93753.28;;;10.98;100.00
9462;BME280;4769;42.660;23.262;2023-03-22T06:44:39;93744.84;;;11.01;100.00
9462;BME280;4769;42.660;23.262;2023-03-22T06:47:05;93754.34;;;10.97;100.00
9462;BME280;4769;42.660;23.262;2023-03-22T06:49:34;93759.91;;;11.00;100.00
9462;BME280;4769;42.660;23.262;2023-03-22T06:52:00;93757.88;;;11.12;100.00
9462;BME280;4769;42.660;23.262;2023-03-22T06:54:25;93769.69;;;11.05;100.00
9462;BME280;4769;42.660;23.262;2023-03-22T06:56:51;93767.56;;;11.02;100.00
9462;BME280;4769;42.660;23.262;2023-03-22T06:59:17;93767.78;;;10.95;100.00
9462;BME280;4769;42.660;23.262;2023-03-22T07:01:43;93780.28;;;11.10;100.00
9462;BME280;4769;42.660;23.262;2023-03-22T07:04:08;93771.78;;;11.03;100.00
9462;BME280;4769;42.660;23.262;2023-03-22T07:06:37;93787.66;;;11.08;100.00
9462;BME280;4769;42.660;23.262;2023-03-22T07:09:02;93776.38;;;11.17;100.00
9462;BME280;4769;42.660;23.262;2023-03-22T07:11:28;93787.09;;;11.32;100.00
9462;BME280;4769;42.660;23.262;2023-03-22T07:13:54;93776.31;;;11.39;100.00
9462;BME280;4769;42.660;23.262;2023-03-22T07:16:20;93786.53;;;11.62;100.00
9462;BME280;4769;42.660;23.262;2023-03-22T07:18:46;93783.16;;;11.71;100.00
9462;BME280;4769;42.660;23.262;2023-03-22T07:21:12;93788.84;;;11.90;100.00
9462;BME280;4769;42.660;23.262;2023-03-22T07:23:40;93788.31;;;11.93;97.98
9462;BME280;4769;42.660;23.262;2023-03-22T07:26:06;93794.13;;;11.95;96.86
9462;BME280;4769;42.660;23.262;2023-03-22T07:28:32;93794.47;;;12.08;96.82
9462;BME280;4769;42.660;23.262;2023-03-22T07:31:02;93795.81;;;12.16;96.24
9462;BME280;4769;42.660;23.262;2023-03-22T07:33:28;93807.47;;;12.20;97.45
9462;BME280;4769;42.660;23.262;2023-03-22T07:35:54;93812.50;;;12.21;97.18
9462;BME280;4769;42.660;23.262;2023-03-22T07:38:20;93804.84;;;12.20;97.53
9462;BME280;4769;42.660;23.262;2023-03-22T07:40:50;93798.13;;;11.97;94.97
9462;BME280;4769;42.660;23.262;2023-03-22T07:43:16;93807.06;;;11.96;95.08
9462;BME280;4769;42.660;23.262;2023-03-22T07:45:51;93807.50;;;11.78;94.96
9462;BME280;4769;42.660;23.262;2023-03-22T07:48:17;93816.44;;;11.72;95.66
9462;BME280;4769;42.660;23.262;2023-03-22T07:50:44;93811.97;;;11.73;96.34
9462;BME280;4769;42.660;23.262;2023-03-22T07:53:11;93816.56;;;11.87;96.22
9462;BME280;4769;42.660;23.262;2023-03-22T07:55:37;93809.09;;;11.79;95.53
9462;BME280;4769;42.660;23.262;2023-03-22T07:58:06;93816.47;;;11.77;93.94
9462;BME280;4769;42.660;23.262;2023-03-22T08:00:32;93822.59;;;11.83;96.13
9462;BME280;4769;42.660;23.262;2023-03-22T08:02:58;93821.00;;;11.82;97.63
9462;BME280;4769;42.660;23.262;2023-03-22T08:05:24;93818.81;;;11.74;97.20
9462;BME280;4769;42.660;23.262;2023-03-22T08:07:50;93818.25;;;11.67;95.43
9462;BME280;4769;42.660;23.262;2023-03-22T08:10:16;93802.28;;;11.57;95.82
9462;BME280;4769;42.660;23.262;2023-03-22T08:12:43;93809.97;;;11.58;96.36
9462;BME280;4769;42.660;23.262;2023-03-22T08:15:16;93808.88;;;11.54;96.67
9462;BME280;4769;42.660;23.262;2023-03-22T08:17:42;93814.78;;;11.61;97.51
9462;BME280;4769;42.660;23.262;2023-03-22T08:20:09;93825.69;;;11.43;98.46
9462;BME280;4769;42.660;23.262;2023-03-22T08:22:35;93826.75;;;11.42;97.95
9462;BME280;4769;42.660;23.262;2023-03-22T08:25:01;93827.16;;;11.29;99.57
9462;BME280;4769;42.660;23.262;2023-03-22T08:27:26;93833.41;;;11.18;100.00
9462;BME280;4769;42.660;23.262;2023-03-22T08:29:52;93824.13;;;11.11;100.00
9462;BME280;4769;42.660;23.262;2023-03-22T08:32:20;93815.22;;;11.22;99.61
9462;BME280;4769;42.660;23.262;2023-03-22T08:34:46;93815.03;;;11.28;99.75
9462;BME280;4769;42.660;23.262;2023-03-22T08:37:12;93830.41;;;11.36;99.85
9462;BME280;4769;42.660;23.262;2023-03-22T08:39:38;93827.94;;;11.25;100.00
9462;BME280;4769;42.660;23.262;2023-03-22T08:42:07;93817.63;;;11.23;100.00
9462;BME280;4769;42.660;23.262;2023-03-22T08:44:33;93837.19;;;11.27;100.00
9462;BME280;4769;42.660;23.262;2023-03-22T08:46:59;93835.56;;;11.26;100.00
9462;BME280;4769;42.660;23.262;2023-03-22T08:49:27;93839.09;;;11.37;100.00
9462;BME280;4769;42.660;23.262;2023-03-22T08:51:53;93837.28;;;11.69;100.00
9462;BME280;4769;42.660;23.262;2023-03-22T08:54:19;93835.69;;;11.68;100.00
9462;BME280;4769;42.660;23.262;2023-03-22T08:56:44;93835.56;;;11.53;100.00
9462;BME280;4769;42.660;23.262;2023-03-22T08:59:10;93837.63;;;11.19;100.00
9462;BME280;4769;42.660;23.262;2023-03-22T09:01:36;93839.78;;;10.96;100.00
9462;BME280;4769;42.660;23.262;2023-03-22T09:04:03;93847.25;;;10.77;100.00
9462;BME280;4769;42.660;23.262;2023-03-22T09:06:31;93849.59;;;10.74;100.00
9462;BME280;4769;42.660;23.262;2023-03-22T09:08:57;93847.78;;;10.79;100.00
9462;BME280;4769;42.660;23.262;2023-03-22T09:11:23;93845.72;;;10.81;100.00
9462;BME280;4769;42.660;23.262;2023-03-22T09:13:49;93850.41;;;10.79;100.00
9462;BME280;4769;42.660;23.262;2023-03-22T09:16:15;93847.47;;;10.76;100.00
9462;BME280;4769;42.660;23.262;2023-03-22T09:18:41;93849.00;;;10.72;100.00
9462;BME280;4769;42.660;23.262;2023-03-22T09:21:07;93861.94;;;10.95;100.00
9462;BME280;4769;42.660;23.262;2023-03-22T09:23:36;93852.19;;;10.95;100.00
9462;BME280;4769;42.660;23.262;2023-03-22T09:26:04;93853.00;;;11.01;100.00
9462;BME280;4769;42.660;23.262;2023-03-22T09:28:30;93850.75;;;11.09;100.00
9462;BME280;4769;42.660;23.262;2023-03-22T09:30:59;93850.53;;;11.16;100.00
9462;BME280;4769;42.660;23.262;2023-03-22T09:33:25;93843.66;;;11.15;100.00
9462;BME280;4769;42.660;23.262;2023-03-22T09:35:52;93852.00;;;11.33;100.00
9462;BME280;4769;42.660;23.262;2023-03-22T09:38:18;93844.34;;;11.32;100.00
9462;BME280;4769;42.660;23.262;2023-03-22T09:40:51;93844.91;;;11.34;100.00
9462;BME280;4769;42.660;23.262;2023-03-22T09:43:18;93849.38;;;11.33;100.00
9462;BME280;4769;42.660;23.262;2023-03-22T09:45:47;93846.50;;;11.35;100.00
9462;BME280;4769;42.660;23.262;2023-03-22T09:48:18;93847.88;;;11.42;100.00
9462;BME280;4769;42.660;23.262;2023-03-22T09:50:46;93851.09;;;11.49;100.00
9462;BME280;4769;42.660;23.262;2023-03-22T09:53:14;93845.97;;;11.64;100.00
9462;BME280;4769;42.660;23.262;2023-03-22T09:55:44;93841.22;;;11.66;100.00
9462;BME280;4769;42.660;23.262;2023-03-22T09:58:18;93846.41;;;11.56;100.00
9462;BME280;4769;42.660;23.262;2023-03-22T10:00:48;93848.66;;;11.69;100.00
9462;BME280;4769;42.660;23.262;2023-03-22T10:03:22;93850.56;;;11.79;100.00
9462;BME280;4769;42.660;23.262;2023-03-22T10:05:56;93848.75;;;11.84;100.00
9462;BME280;4769;42.660;23.262;2023-03-22T10:08:34;93850.97;;;11.97;100.00
9462;BME280;4769;42.660;23.262;2023-03-22T10:11:01;93849.91;;;11.98;100.00
9462;BME280;4769;42.660;23.262;2023-03-22T10:13:37;93859.41;;;11.99;100.00
9462;BME280;4769;42.660;23.262;2023-03-22T10:16:10;93841.94;;;11.93;99.28
9462;BME280;4769;42.660;23.262;2023-03-22T10:18:38;93855.16;;;11.93;99.81
9462;BME280;4769;42.660;23.262;2023-03-22T10:21:07;93861.31;;;12.04;99.85
9462;BME280;4769;42.660;23.262;2023-03-22T10:23:38;93855.97;;;11.99;100.00
9462;BME280;4769;42.660;23.262;2023-03-22T10:26:08;93860.75;;;12.02;100.00
9462;BME280;4769;42.660;23.262;2023-03-22T10:28:44;93855.72;;;12.00;100.00
9462;BME280;4769;42.660;23.262;2023-03-22T10:31:15;93860.50;;;12.03;100.00
9462;BME280;4769;42.660;23.262;2023-03-22T10:33:44;93863.97;;;12.09;100.00
9462;BME280;4769;42.660;23.262;2023-03-22T10:36:12;93858.19;;;12.17;100.00
9462;BME280;4769;42.660;23.262;2023-03-22T10:38:44;93856.63;;;12.21;100.00
9462;BME280;4769;42.660;23.262;2023-03-22T10:41:12;93855.31;;;12.23;100.00
9462;BME280;4769;42.660;23.262;2023-03-22T10:43:44;93854.31;;;12.29;100.00
9462;BME280;4769;42.660;23.262;2023-03-22T10:46:16;93858.56;;;12.30;99.34
9462;BME280;4769;42.660;23.262;2023-03-22T10:48:44;93852.47;;;12.35;99.66
9462;BME280;4769;42.660;23.262;2023-03-22T10:51:19;93857.28;;;12.43;99.82
9462;BME280;4769;42.660;23.262;2023-03-22T10:53:49;93865.25;;;12.53;99.48
9462;BME280;4769;42.660;23.262;2023-03-22T10:56:18;93868.16;;;12.51;99.11
9462;BME280;4769;42.660;23.262;2023-03-22T10:58:48;93857.06;;;12.49;99.49
9462;BME280;4769;42.660;23.262;2023-03-22T11:01:15;93856.81;;;12.51;99.70
9462;BME280;4769;42.660;23.262;2023-03-22T11:03:50;93853.53;;;12.34;99.39
9462;BME280;4769;42.660;23.262;2023-03-22T11:06:18;93865.41;;;12.26;99.76
9462;BME280;4769;42.660;23.262;2023-03-22T11:08:45;93856.47;;;12.42;99.70
9462;BME280;4769;42.660;23.262;2023-03-22T11:11:22;93850.97;;;12.54;99.47
9462;BME280;4769;42.660;23.262;2023-03-22T11:13:59;93857.34;;;12.58;99.49
9462;BME280;4769;42.660;23.262;2023-03-22T11:16:27;93863.13;;;12.50;100.00
9462;BME280;4769;42.660;23.262;2023-03-22T11:18:54;93847.97;;;12.30;99.72
9462;BME280;4769;42.660;23.262;2023-03-22T11:21:24;93853.41;;;12.09;100.00
9462;BME280;4769;42.660;23.262;2023-03-22T11:23:56;93845.16;;;12.00;100.00
9462;BME280;4769;42.660;23.262;2023-03-22T11:26:30;93844.16;;;12.06;100.00
9462;BME280;4769;42.660;23.262;2023-03-22T11:29:06;93843.63;;;12.09;100.00
9462;BME280;4769;42.660;23.262;2023-03-22T11:31:56;93843.06;;;12.02;100.00
9462;BME280;4769;42.660;23.262;2023-03-22T11:34:26;93846.16;;;11.94;100.00
9462;BME280;4769;42.660;23.262;2023-03-22T11:36:52;93846.84;;;11.80;100.00
9462;BME280;4769;42.660;23.262;2023-03-22T11:39:18;93846.31;;;11.78;100.00
9462;BME280;4769;42.660;23.262;2023-03-22T11:41:44;93848.19;;;11.82;100.00
9462;BME280;4769;42.660;23.262;2023-03-22T11:44:15;93842.16;;;11.87;100.00
9462;BME280;4769;42.660;23.262;2023-03-22T11:46:48;93840.06;;;11.89;100.00
9462;BME280;4769;42.660;23.262;2023-03-22T11:49:16;93837.69;;;11.87;100.00
9462;BME280;4769;42.660;23.262;2023-03-22T11:51:42;93846.84;;;11.80;100.00
9462;BME280;4769;42.660;23.262;2023-03-22T11:54:13;93842.53;;;11.64;100.00
9462;BME280;4769;42.660;23.262;2023-03-22T11:56:41;93839.06;;;11.63;100.00
9462;BME280;4769;42.660;23.262;2023-03-22T11:59:22;93839.19;;;11.73;100.00
9462;BME280;4769;42.660;23.262;2023-03-22T12:01:51;93839.53;;;11.87;100.00
9462;BME280;4769;42.660;23.262;2023-03-22T12:04:24;93843.31;;;12.01;100.00
9462;BME280;4769;42.660;23.262;2023-03-22T12:06:51;93837.41;;;11.89;100.00
9462;BME280;4769;42.660;23.262;2023-03-22T12:09:24;93840.16;;;12.04;100.00
9462;BME280;4769;42.660;23.262;2023-03-22T12:11:55;93847.94;;;12.20;100.00
9462;BME280;4769;42.660;23.262;2023-03-22T12:14:27;93840.03;;;12.30;99.62
9462;BME280;4769;42.660;23.262;2023-03-22T12:16:56;93838.72;;;12.33;99.40
9462;BME280;4769;42.660;23.262;2023-03-22T12:19:35;93837.16;;;12.32;99.35
9462;BME280;4769;42.660;23.262;2023-03-22T12:22:04;93834.28;;;12.43;99.71
9462;BME280;4769;42.660;23.262;2023-03-22T12:24:33;93830.38;;;12.56;99.47
9462;BME280;4769;42.660;23.262;2023-03-22T12:27:06;93837.03;;;12.68;99.68
9462;BME280;4769;42.660;23.262;2023-03-22T12:29:36;93839.69;;;12.73;98.96
9462;BME280;4769;42.660;23.262;2023-03-22T12:32:10;93837.91;;;12.94;97.81
9462;BME280;4769;42.660;23.262;2023-03-22T12:34:41;93843.75;;;13.06;96.16
9462;BME280;4769;42.660;23.262;2023-03-22T12:37:14;93835.34;;;13.34;94.12
9462;BME280;4769;42.660;23.262;2023-03-22T12:39:46;93827.44;;;13.59;92.16
9462;BME280;4769;42.660;23.262;2023-03-22T12:42:19;93820.78;;;13.81;90.28
9462;BME280;4769;42.660;23.262;2023-03-22T12:44:48;93821.28;;;14.08;89.52
9462;BME280;4769;42.660;23.262;2023-03-22T12:47:21;93819.91;;;14.36;88.47
9462;BME280;4769;42.660;23.262;2023-03-22T12:49:53;93822.22;;;14.63;86.92
9462;BME280;4769;42.660;23.262;2023-03-22T12:52:25;93825.63;;;14.68;86.14
9462;BME280;4769;42.660;23.262;2023-03-22T12:54:54;93815.59;;;14.60;84.91
9462;BME280;4769;42.660;23.262;2023-03-22T12:57:21;93822.22;;;14.53;83.33
9462;BME280;4769;42.660;23.262;2023-03-22T12:59:53;93822.84;;;14.19;82.66
9462;BME280;4769;42.660;23.262;2023-03-22T13:02:25;93810.94;;;14.07;81.62
9462;BME280;4769;42.660;23.262;2023-03-22T13:04:54;93818.88;;;14.07;81.82
9462;BME280;4769;42.660;23.262;2023-03-22T13:07:37;93817.59;;;13.99;83.46
9462;BME280;4769;42.660;23.262;2023-03-22T13:13:09;93821.34;;;13.83;84.08
9462;BME280;4769;42.660;23.262;2023-03-22T13:15:39;93818.94;;;13.82;84.37
9462;BME280;4769;42.660;23.262;2023-03-22T13:18:22;93814.44;;;13.67;85.23
9462;BME280;4769;42.660;23.262;2023-03-22T13:21:08;93816.28;;;13.52;83.48
9462;BME280;4769;42.660;23.262;2023-03-22T13:23:33;93821.56;;;13.17;84.61